createdAt,value
2023-02-09T00:01:55.773Z,-6.81
2023-02-09T00:04:28.688Z,-6.84
2023-02-09T00:07:06.049Z,-6.91
2023-02-09T00:09:39.972Z,-6.99
2023-02-09T00:12:32.399Z,-7.10
2023-02-09T00:15:03.469Z,-7.14
2023-02-09T00:17:39.931Z,-7.15
2023-02-09T00:20:13.913Z,-7.15
2023-02-09T00:22:50.331Z,-7.16
2023-02-09T00:25:22.952Z,-7.16
2023-02-09T00:27:55.613Z,-7.19
2023-02-09T00:30:28.146Z,-7.24
2023-02-09T00:33:00.580Z,-7.27
2023-02-09T00:35:33.172Z,-7.33
2023-02-09T00:38:05.826Z,-7.39
2023-02-09T00:40:38.691Z,-7.44
2023-02-09T00:43:12.072Z,-7.45
2023-02-09T00:45:44.577Z,-7.45
2023-02-09T00:48:17.234Z,-7.48
2023-02-09T00:50:51.134Z,-7.51
2023-02-09T00:53:25.972Z,-7.54
2023-02-09T00:56:02.069Z,-7.52
2023-02-09T00:58:34.778Z,-7.51
2023-02-09T01:01:07.456Z,-7.52
2023-02-09T01:03:39.894Z,-7.53
2023-02-09T01:06:12.556Z,-7.56
2023-02-09T01:08:47.903Z,-7.59
2023-02-09T01:11:20.253Z,-7.63
2023-02-09T01:13:53.645Z,-7.76
2023-02-09T01:16:28.895Z,-7.85
2023-02-09T01:19:04.032Z,-7.88
2023-02-09T01:21:42.886Z,-7.92
2023-02-09T01:24:16.851Z,-7.96
2023-02-09T01:26:49.504Z,-7.98
2023-02-09T01:29:24.387Z,-7.99
2023-02-09T01:32:00.583Z,-8.04
2023-02-09T01:34:33.106Z,-8.07
2023-02-09T01:37:08.159Z,-8.07
2023-02-09T01:39:40.510Z,-8.03
2023-02-09T01:42:17.755Z,-8.01
2023-02-09T01:45:24.547Z,-7.94
2023-02-09T01:48:03.611Z,-7.89
2023-02-09T01:50:40.363Z,-7.87
2023-02-09T01:53:13.526Z,-7.86
2023-02-09T01:55:52.708Z,-7.86
2023-02-09T01:58:26.871Z,-7.88
2023-02-09T02:01:00.242Z,-7.90
2023-02-09T02:03:33.436Z,-7.92
2023-02-09T02:06:14.018Z,-7.93
2023-02-09T02:08:52.667Z,-7.93
2023-02-09T02:11:27.793Z,-7.93
2023-02-09T02:14:00.575Z,-7.94
2023-02-09T02:16:52.168Z,-7.95
2023-02-09T02:19:55.562Z,-7.95
2023-02-09T02:23:00.899Z,-7.98
2023-02-09T02:26:23.360Z,-7.98
2023-02-09T02:29:26.164Z,-7.99
2023-02-09T02:32:22.908Z,-7.98
2023-02-09T02:35:02.152Z,-7.99
2023-02-09T02:37:47.868Z,-7.97
2023-02-09T02:40:29.738Z,-7.97
2023-02-09T02:43:09.876Z,-7.95
2023-02-09T02:45:47.958Z,-7.96
2023-02-09T02:48:31.181Z,-7.98
2023-02-09T02:51:07.143Z,-8.02
2023-02-09T02:53:45.596Z,-8.03
2023-02-09T02:56:21.358Z,-8.03
2023-02-09T02:58:58.164Z,-8.03
2023-02-09T03:01:35.380Z,-8.02
2023-02-09T03:04:09.705Z,-8.02
2023-02-09T03:06:42.210Z,-8.05
2023-02-09T03:09:14.613Z,-8.08
2023-02-09T03:11:51.512Z,-8.07
2023-02-09T03:14:44.003Z,-8.05
2023-02-09T03:17:32.721Z,-8.07
2023-02-09T03:20:12.142Z,-8.06
2023-02-09T03:22:48.839Z,-8.06
2023-02-09T03:25:25.924Z,-8.07
2023-02-09T03:28:07.774Z,-8.08
2023-02-09T03:30:42.533Z,-8.12
2023-02-09T03:33:22.608Z,-8.12
2023-02-09T03:35:59.161Z,-8.11
2023-02-09T03:38:31.577Z,-8.12
2023-02-09T03:41:03.981Z,-8.13
2023-02-09T03:43:50.147Z,-8.17
2023-02-09T03:46:22.471Z,-8.19
2023-02-09T03:48:54.855Z,-8.22
2023-02-09T03:51:28.333Z,-8.22
2023-02-09T03:54:00.753Z,-8.23
2023-02-09T03:56:33.033Z,-8.24
2023-02-09T03:59:05.453Z,-8.25
2023-02-09T04:01:38.135Z,-8.25
2023-02-09T04:04:11.142Z,-8.27
2023-02-09T04:06:43.467Z,-8.29
2023-02-09T04:09:15.802Z,-8.30
2023-02-09T04:11:50.916Z,-8.32
2023-02-09T04:14:23.530Z,-8.32
2023-02-09T04:16:58.124Z,-8.34
2023-02-09T04:19:30.442Z,-8.36
2023-02-09T04:22:02.907Z,-8.33
2023-02-09T04:24:35.289Z,-8.30
2023-02-09T04:27:07.709Z,-8.30
2023-02-09T04:29:39.974Z,-8.31
2023-02-09T04:32:12.537Z,-8.32
2023-02-09T04:34:45.201Z,-8.36
2023-02-09T04:37:17.513Z,-8.39
2023-02-09T04:39:49.844Z,-8.43
2023-02-09T04:42:22.345Z,-8.46
2023-02-09T04:44:54.801Z,-8.47
2023-02-09T04:47:27.262Z,-8.47
2023-02-09T04:49:59.590Z,-8.49
2023-02-09T04:52:31.886Z,-8.48
2023-02-09T04:55:04.292Z,-8.51
2023-02-09T04:57:54.319Z,-8.53
2023-02-09T05:00:26.967Z,-8.53
2023-02-09T05:02:59.449Z,-8.57
2023-02-09T05:05:31.943Z,-8.59
2023-02-09T05:08:04.084Z,-8.61
2023-02-09T05:10:36.603Z,-8.62
2023-02-09T05:13:08.974Z,-8.59
2023-02-09T05:15:41.254Z,-8.54
2023-02-09T05:18:13.508Z,-8.50
2023-02-09T05:20:49.921Z,-8.46
2023-02-09T05:23:22.440Z,-8.42
2023-02-09T05:25:55.127Z,-8.41
2023-02-09T05:28:27.595Z,-8.43
2023-02-09T05:30:59.916Z,-8.47
2023-02-09T05:33:32.527Z,-8.53
2023-02-09T05:36:09.304Z,-8.54
2023-02-09T05:38:42.220Z,-8.56
2023-02-09T05:41:36.360Z,-8.56
2023-02-09T05:44:08.904Z,-8.55
2023-02-09T05:46:41.516Z,-8.57
2023-02-09T05:49:13.930Z,-8.52
2023-02-09T05:51:46.165Z,-8.36
2023-02-09T05:54:18.385Z,-8.25
2023-02-09T05:56:50.687Z,-8.11
2023-02-09T05:59:23.317Z,-7.95
2023-02-09T06:01:55.630Z,-7.78
2023-02-09T06:04:28.688Z,-7.63
2023-02-09T06:07:01.394Z,-7.50
2023-02-09T06:09:33.869Z,-7.38
2023-02-09T06:12:06.633Z,-7.30
2023-02-09T06:14:38.886Z,-7.22
2023-02-09T06:17:11.191Z,-7.14
2023-02-09T06:19:43.553Z,-7.05
2023-02-09T06:22:15.974Z,-6.99
2023-02-09T06:24:48.798Z,-6.94
2023-02-09T06:27:21.437Z,-6.88
2023-02-09T06:29:54.033Z,-6.81
2023-02-09T06:32:26.409Z,-6.73
2023-02-09T06:34:58.802Z,-6.66
2023-02-09T06:37:31.102Z,-6.61
2023-02-09T06:40:03.444Z,-6.55
2023-02-09T06:42:44.802Z,-6.50
2023-02-09T06:45:18.806Z,-6.45
2023-02-09T06:47:51.076Z,-6.38
2023-02-09T06:50:23.882Z,-6.31
2023-02-09T06:52:58.246Z,-6.24
2023-02-09T06:55:30.557Z,-6.16
2023-02-09T06:58:02.910Z,-6.09
2023-02-09T07:00:35.493Z,-6.01
2023-02-09T07:03:07.954Z,-5.94
2023-02-09T07:05:40.468Z,-5.86
2023-02-09T07:08:12.828Z,-5.75
2023-02-09T07:10:48.115Z,-5.67
2023-02-09T07:13:20.408Z,-5.58
2023-02-09T07:15:58.900Z,-5.49
2023-02-09T07:18:33.395Z,-5.40
2023-02-09T07:21:08.665Z,-5.31
2023-02-09T07:23:41.523Z,-5.22
2023-02-09T07:26:16.718Z,-5.15
2023-02-09T07:28:52.491Z,-5.04
2023-02-09T07:31:27.318Z,-4.94
2023-02-09T07:33:59.741Z,-4.81
2023-02-09T07:36:32.113Z,-4.37
2023-02-09T07:39:05.805Z,-3.81
2023-02-09T07:41:38.491Z,-3.50
2023-02-09T07:44:11.694Z,-3.14
2023-02-09T07:46:49.771Z,-2.90
2023-02-09T07:49:22.227Z,-2.56
2023-02-09T07:55:12.336Z,-1.05
2023-02-09T07:57:44.599Z,-0.50
2023-02-09T08:00:20.915Z,-0.07
2023-02-09T08:02:53.855Z,-0.25
2023-02-09T08:05:32.365Z,-0.57
2023-02-09T08:08:04.910Z,-0.68
2023-02-09T08:10:37.882Z,-0.64
2023-02-09T08:13:15.224Z,-0.34
2023-02-09T08:15:51.949Z,0.30
2023-02-09T08:18:29.396Z,1.43
2023-02-09T08:21:01.892Z,2.48
2023-02-09T08:23:39.531Z,2.61
2023-02-09T08:26:15.173Z,2.85
2023-02-09T08:28:47.578Z,3.27
2023-02-09T08:31:23.093Z,3.40
2023-02-09T08:33:55.721Z,3.22
2023-02-09T08:36:28.042Z,2.82
2023-02-09T08:39:00.354Z,2.65
2023-02-09T08:41:36.329Z,2.75
2023-02-09T08:44:08.612Z,3.85
2023-02-09T08:46:41.046Z,5.34
2023-02-09T08:49:13.487Z,6.88
2023-02-09T08:51:46.187Z,8.43
2023-02-09T08:54:18.885Z,9.48
2023-02-09T08:56:51.106Z,10.31
2023-02-09T08:59:23.510Z,11.41
2023-02-09T09:01:55.937Z,12.05
2023-02-09T09:04:29.664Z,12.72
2023-02-09T09:07:02.157Z,12.77
2023-02-09T09:09:34.595Z,13.11
2023-02-09T09:12:08.432Z,13.34
2023-02-09T09:14:40.692Z,13.32
2023-02-09T09:17:13.000Z,13.85
2023-02-09T09:19:45.288Z,14.54
2023-02-09T09:22:17.597Z,14.91
2023-02-09T09:24:50.065Z,15.14
2023-02-09T09:27:22.474Z,15.54
2023-02-09T09:29:54.853Z,15.53
2023-02-09T09:32:27.534Z,15.48
2023-02-09T09:35:03.549Z,15.18
2023-02-09T09:37:35.880Z,14.99
2023-02-09T09:40:09.056Z,15.01
2023-02-09T09:42:50.026Z,14.96
2023-02-09T09:45:26.648Z,14.48
2023-02-09T09:47:58.941Z,14.24
2023-02-09T09:50:40.245Z,14.64
2023-02-09T09:53:19.571Z,14.48
2023-02-09T09:55:56.635Z,13.50
2023-02-09T09:58:31.392Z,12.83
2023-02-09T10:01:03.985Z,12.67
2023-02-09T10:03:38.632Z,12.67
2023-02-09T10:06:19.289Z,12.12
2023-02-09T10:08:58.982Z,11.78
2023-02-09T10:11:36.699Z,12.20
2023-02-09T10:14:09.580Z,12.07
2023-02-09T10:16:47.982Z,11.70
2023-02-09T10:19:29.393Z,11.71
2023-02-09T10:22:02.267Z,11.54
2023-02-09T10:24:37.199Z,11.87
2023-02-09T10:27:15.978Z,12.37
2023-02-09T10:29:49.017Z,13.09
2023-02-09T10:32:24.378Z,13.99
2023-02-09T10:35:02.296Z,14.01
2023-02-09T10:37:39.499Z,14.04
2023-02-09T10:40:18.414Z,13.56
2023-02-09T10:42:58.361Z,12.92
2023-02-09T10:45:38.256Z,13.06
2023-02-09T10:48:21.190Z,13.18
2023-02-09T10:50:57.371Z,13.17
2023-02-09T10:53:32.695Z,13.35
2023-02-09T10:56:13.608Z,13.92
2023-02-09T10:58:52.482Z,14.76
2023-02-09T11:01:28.539Z,14.15
2023-02-09T11:04:04.959Z,14.28
2023-02-09T11:06:49.890Z,15.07
2023-02-09T11:09:28.022Z,15.86
2023-02-09T11:12:00.595Z,16.21
2023-02-09T11:14:33.046Z,16.55
2023-02-09T11:17:24.302Z,16.65
2023-02-09T11:20:23.378Z,16.10
2023-02-09T11:23:08.098Z,15.32
2023-02-09T11:25:46.888Z,13.94
2023-02-09T11:28:36.656Z,13.47
2023-02-09T11:31:36.393Z,13.27
2023-02-09T11:34:19.843Z,12.52
2023-02-09T11:37:06.225Z,11.03
2023-02-09T11:42:45.733Z,9.43
2023-02-09T11:45:26.314Z,8.53
2023-02-09T11:48:06.467Z,8.20
2023-02-09T11:50:48.636Z,8.08
2023-02-09T11:53:29.067Z,7.87
2023-02-09T11:56:04.301Z,7.10
2023-02-09T11:58:56.202Z,6.86
2023-02-09T12:01:35.598Z,6.86
2023-02-09T12:04:17.628Z,7.43
2023-02-09T12:06:54.636Z,7.73
2023-02-09T12:09:38.884Z,8.53
2023-02-09T12:12:24.752Z,8.46
2023-02-09T12:15:15.789Z,8.05
2023-02-09T12:17:52.543Z,7.32
2023-02-09T12:20:28.575Z,7.04
2023-02-09T12:23:04.519Z,7.05
2023-02-09T12:25:55.388Z,7.53
2023-02-09T12:28:46.195Z,7.96
2023-02-09T12:31:23.002Z,7.70
2023-02-09T12:34:28.943Z,7.60
2023-02-09T12:37:28.466Z,8.72
2023-02-09T12:40:24.542Z,9.67
2023-02-09T12:43:30.668Z,9.56
2023-02-09T12:46:23.663Z,9.87
2023-02-09T12:49:22.990Z,10.74
2023-02-09T12:52:15.179Z,11.19
2023-02-09T12:54:52.198Z,11.70
2023-02-09T12:57:54.386Z,11.93
2023-02-09T13:00:47.646Z,11.76
2023-02-09T13:03:23.328Z,11.65
2023-02-09T13:06:00.932Z,11.78
2023-02-09T13:08:49.833Z,11.43
2023-02-09T13:11:31.226Z,10.90
2023-02-09T13:14:09.833Z,10.44
2023-02-09T13:17:18.301Z,10.28
2023-02-09T13:20:08.432Z,10.65
2023-02-09T13:22:54.244Z,11.12
2023-02-09T13:25:32.464Z,11.39
2023-02-09T13:28:16.526Z,11.27
2023-02-09T13:30:49.586Z,10.88
2023-02-09T13:33:37.787Z,10.56
2023-02-09T13:36:25.134Z,10.12
2023-02-09T13:38:58.091Z,9.96
2023-02-09T13:41:37.095Z,10.02
2023-02-09T13:44:26.653Z,9.85
2023-02-09T13:47:04.145Z,9.66
2023-02-09T13:49:36.962Z,9.52
2023-02-09T13:52:14.175Z,9.50
2023-02-09T13:54:47.442Z,9.41
2023-02-09T13:57:34.972Z,9.14
2023-02-09T14:00:18.004Z,9.03
2023-02-09T14:02:58.547Z,9.20
2023-02-09T14:05:41.448Z,9.35
2023-02-09T14:08:15.943Z,9.01
2023-02-09T14:10:53.962Z,8.58
2023-02-09T14:13:30.059Z,8.45
2023-02-09T14:16:10.170Z,8.43
2023-02-09T14:18:59.484Z,8.42
2023-02-09T14:21:45.168Z,8.45
2023-02-09T14:24:23.268Z,8.61
2023-02-09T14:27:00.162Z,8.55
2023-02-09T14:29:34.372Z,8.27
2023-02-09T14:32:32.335Z,7.85
2023-02-09T14:35:20.838Z,7.26
2023-02-09T14:37:55.976Z,6.69
2023-02-09T14:40:45.637Z,6.35
2023-02-09T14:43:29.572Z,6.11
2023-02-09T14:46:03.999Z,5.99
2023-02-09T14:48:36.704Z,5.98
2023-02-09T14:51:17.405Z,5.89
2023-02-09T14:53:50.374Z,5.70
2023-02-09T14:56:29.751Z,5.63
2023-02-09T14:59:03.547Z,5.55
2023-02-09T15:01:35.827Z,5.40
2023-02-09T15:04:08.129Z,5.28
2023-02-09T15:06:41.187Z,5.09
2023-02-09T15:09:22.595Z,4.82
2023-02-09T15:12:07.061Z,4.51
2023-02-09T15:14:46.645Z,4.26
2023-02-09T15:17:21.749Z,4.05
2023-02-09T15:19:54.911Z,3.85
2023-02-09T15:22:27.775Z,3.69
2023-02-09T15:24:59.945Z,3.51
2023-02-09T15:27:36.535Z,3.31
2023-02-09T15:30:16.918Z,3.14
2023-02-09T15:32:49.351Z,2.99
2023-02-09T15:35:23.924Z,2.84
2023-02-09T15:37:57.742Z,2.70
2023-02-09T15:40:55.878Z,2.55
2023-02-09T15:43:46.906Z,2.43
2023-02-09T15:46:36.875Z,2.29
2023-02-09T15:49:09.304Z,2.17
2023-02-09T15:51:42.592Z,2.04
2023-02-09T15:54:19.976Z,1.92
2023-02-09T15:56:52.479Z,1.82
2023-02-09T15:59:26.171Z,1.73
2023-02-09T16:02:00.258Z,1.62
2023-02-09T16:04:32.853Z,1.52
2023-02-09T16:07:05.146Z,1.41
2023-02-09T16:09:37.487Z,1.31
2023-02-09T16:12:12.883Z,1.21
2023-02-09T16:14:45.831Z,1.13
2023-02-09T16:17:17.999Z,1.07
2023-02-09T16:19:52.385Z,1.05
2023-02-09T16:22:25.233Z,0.98
2023-02-09T16:24:57.527Z,0.90
2023-02-09T16:27:30.790Z,0.82
2023-02-09T16:30:17.019Z,0.73
2023-02-09T16:32:53.649Z,0.63
2023-02-09T16:35:26.736Z,0.54
2023-02-09T16:37:59.346Z,0.46
2023-02-09T16:40:34.054Z,0.38
2023-02-09T16:43:06.918Z,0.30
2023-02-09T16:45:44.610Z,0.24
2023-02-09T16:48:26.648Z,0.17
2023-02-09T16:50:59.656Z,0.09
2023-02-09T16:53:36.221Z,0.02
2023-02-09T16:56:12.031Z,-0.05
2023-02-09T16:58:44.997Z,-0.08
2023-02-09T17:01:20.872Z,-0.10
2023-02-09T17:03:55.944Z,-0.13
2023-02-09T17:06:30.934Z,-0.14
2023-02-09T17:09:03.217Z,-0.16
2023-02-09T17:11:35.441Z,-0.17
2023-02-09T17:14:07.653Z,-0.19
2023-02-09T17:16:43.474Z,-0.19
2023-02-09T17:19:18.307Z,-0.19
2023-02-09T17:21:50.513Z,-0.21
2023-02-09T17:24:22.751Z,-0.26
2023-02-09T17:26:55.287Z,-0.26
2023-02-09T17:29:27.592Z,-0.28
2023-02-09T17:32:01.861Z,-0.30
2023-02-09T17:34:34.192Z,-0.31
2023-02-09T17:37:06.689Z,-0.35
2023-02-09T17:39:39.138Z,-0.38
2023-02-09T17:42:21.947Z,-0.39
2023-02-09T17:44:54.873Z,-0.41
2023-02-09T17:47:28.161Z,-0.42
2023-02-09T17:50:00.388Z,-0.43
2023-02-09T17:52:32.879Z,-0.41
2023-02-09T17:55:05.307Z,-0.42
2023-02-09T17:57:37.592Z,-0.42
2023-02-09T18:00:12.382Z,-0.44
2023-02-09T18:02:45.433Z,-0.45
2023-02-09T18:05:22.137Z,-0.49
2023-02-09T18:07:55.014Z,-0.52
2023-02-09T18:10:27.408Z,-0.54
2023-02-09T18:12:59.614Z,-0.57
2023-02-09T18:15:35.523Z,-0.60
2023-02-09T18:18:08.102Z,-0.62
2023-02-09T18:20:41.145Z,-0.66
2023-02-09T18:23:16.437Z,-0.69
2023-02-09T18:25:49.911Z,-0.70
2023-02-09T18:28:22.735Z,-0.71
2023-02-09T18:30:55.048Z,-0.72
2023-02-09T18:33:27.237Z,-0.75
2023-02-09T18:35:59.424Z,-0.78
2023-02-09T18:38:31.676Z,-0.80
2023-02-09T18:41:04.063Z,-0.80
2023-02-09T18:43:37.474Z,-0.81
2023-02-09T18:46:11.985Z,-0.80
2023-02-09T18:48:44.285Z,-0.81
2023-02-09T18:51:17.404Z,-0.85
2023-02-09T18:53:51.255Z,-0.87
2023-02-09T18:56:25.861Z,-0.89
2023-02-09T18:58:58.132Z,-0.90
2023-02-09T19:01:30.321Z,-0.91
2023-02-09T19:04:04.100Z,-0.93
2023-02-09T19:06:37.560Z,-0.96
2023-02-09T19:09:10.787Z,-1.00
2023-02-09T19:11:58.575Z,-1.04
2023-02-09T19:14:40.488Z,-1.07
2023-02-09T19:17:23.630Z,-1.08
2023-02-09T19:20:09.291Z,-1.10
2023-02-09T19:22:51.921Z,-1.11
2023-02-09T19:25:27.663Z,-1.14
2023-02-09T19:28:03.025Z,-1.19
2023-02-09T19:30:41.430Z,-1.23
2023-02-09T19:33:15.588Z,-1.26
2023-02-09T19:35:48.041Z,-1.28
2023-02-09T19:38:24.331Z,-1.30
2023-02-09T19:41:10.498Z,-1.31
2023-02-09T19:43:44.468Z,-1.32
2023-02-09T19:46:17.955Z,-1.34
2023-02-09T19:48:50.520Z,-1.35
2023-02-09T19:51:24.807Z,-1.36
2023-02-09T19:53:56.896Z,-1.38
2023-02-09T19:56:29.339Z,-1.39
2023-02-09T19:59:02.328Z,-1.39
2023-02-09T20:01:34.792Z,-1.41
2023-02-09T20:04:07.339Z,-1.42
2023-02-09T20:06:39.576Z,-1.42
2023-02-09T20:09:12.452Z,-1.42
2023-02-09T20:11:44.789Z,-1.41
2023-02-09T20:14:17.000Z,-1.42
2023-02-09T20:16:49.264Z,-1.42
2023-02-09T20:19:27.261Z,-1.44
2023-02-09T20:21:59.844Z,-1.47
2023-02-09T20:24:32.119Z,-1.49
2023-02-09T20:27:04.997Z,-1.49
2023-02-09T20:29:40.114Z,-1.50
2023-02-09T20:32:15.310Z,-1.48
2023-02-09T20:34:50.462Z,-1.47
2023-02-09T20:37:22.829Z,-1.46
2023-02-09T20:39:55.541Z,-1.46
2023-02-09T20:42:45.928Z,-1.46
2023-02-09T20:45:36.644Z,-1.47
2023-02-09T20:48:10.458Z,-1.48
2023-02-09T20:50:42.713Z,-1.48
2023-02-09T20:53:15.177Z,-1.49
2023-02-09T20:55:47.561Z,-1.52
2023-02-09T20:58:24.757Z,-1.52
2023-02-09T21:00:57.089Z,-1.53
2023-02-09T21:03:29.543Z,-1.53
2023-02-09T21:08:42.881Z,-1.53
2023-02-09T21:11:17.530Z,-1.54
2023-02-09T21:13:55.788Z,-1.55
2023-02-09T21:16:28.741Z,-1.56
2023-02-09T21:19:01.893Z,-1.55
2023-02-09T21:21:34.700Z,-1.54
2023-02-09T21:24:12.134Z,-1.52
2023-02-09T21:26:44.472Z,-1.53
2023-02-09T21:29:20.652Z,-1.53
2023-02-09T21:31:55.324Z,-1.53
2023-02-09T21:34:27.577Z,-1.51
2023-02-09T21:36:59.989Z,-1.51
2023-02-09T21:39:34.428Z,-1.50
2023-02-09T21:42:24.284Z,-1.50
2023-02-09T21:44:58.609Z,-1.51
2023-02-09T21:47:32.817Z,-1.51
2023-02-09T21:50:05.697Z,-1.51
2023-02-09T21:52:38.774Z,-1.51
2023-02-09T21:55:11.366Z,-1.52
2023-02-09T21:57:43.669Z,-1.54
2023-02-09T22:00:17.999Z,-1.54
2023-02-09T22:02:54.555Z,-1.55
2023-02-09T22:05:27.135Z,-1.54
2023-02-09T22:07:59.415Z,-1.54
2023-02-09T22:10:31.616Z,-1.54
2023-02-09T22:13:08.598Z,-1.53
2023-02-09T22:15:44.364Z,-1.53
2023-02-09T22:18:18.076Z,-1.53
2023-02-09T22:20:51.590Z,-1.52
2023-02-09T22:23:27.124Z,-1.52
2023-02-09T22:26:02.895Z,-1.53
2023-02-09T22:28:36.681Z,-1.53
2023-02-09T22:31:19.805Z,-1.54
2023-02-09T22:33:55.242Z,-1.55
2023-02-09T22:36:31.194Z,-1.57
2023-02-09T22:39:07.660Z,-1.57
2023-02-09T22:41:40.106Z,-1.55
2023-02-09T22:44:17.991Z,-1.55
2023-02-09T22:46:50.318Z,-1.56
2023-02-09T22:49:24.113Z,-1.57
2023-02-09T22:52:01.757Z,-1.57
2023-02-09T22:54:36.254Z,-1.57
2023-02-09T22:57:13.416Z,-1.57
2023-02-09T22:59:52.076Z,-1.57
2023-02-09T23:02:29.945Z,-1.58
2023-02-09T23:05:05.583Z,-1.59
2023-02-09T23:07:38.005Z,-1.60
2023-02-09T23:10:14.287Z,-1.61
2023-02-09T23:12:49.584Z,-1.64
2023-02-09T23:15:27.870Z,-1.65
2023-02-09T23:18:09.428Z,-1.64
2023-02-09T23:20:47.769Z,-1.62
2023-02-09T23:23:24.941Z,-1.61
2023-02-09T23:26:02.831Z,-1.62
2023-02-09T23:28:40.317Z,-1.61
2023-02-09T23:31:19.062Z,-1.59
2023-02-09T23:34:04.266Z,-1.60
2023-02-09T23:36:39.682Z,-1.60
2023-02-09T23:39:25.899Z,-1.59
2023-02-09T23:41:59.387Z,-1.59
2023-02-09T23:44:32.240Z,-1.58
2023-02-09T23:47:04.491Z,-1.58
2023-02-09T23:49:40.267Z,-1.58
2023-02-09T23:52:12.504Z,-1.58
2023-02-09T23:54:45.120Z,-1.57
2023-02-09T23:57:17.980Z,-1.58
2023-02-09T23:59:50.929Z,-1.59
